createdAt,value
2023-03-29T00:10:50.857Z,95.60
2023-03-29T00:25:56.021Z,95.20
2023-03-29T00:41:00.962Z,95.00
2023-03-29T00:56:11.679Z,94.50
2023-03-29T01:11:20.008Z,94.70
2023-03-29T01:26:33.343Z,94.10
2023-03-29T01:41:46.246Z,94.40
2023-03-29T01:56:52.507Z,94.40
2023-03-29T02:11:58.282Z,94.50
2023-03-29T02:27:03.434Z,94.80
2023-03-29T02:42:09.286Z,95.10
2023-03-29T02:57:13.829Z,95.40
2023-03-29T03:12:18.578Z,95.70
2023-03-29T03:27:23.852Z,96.00
2023-03-29T03:42:30.452Z,96.40
2023-03-29T03:57:37.420Z,97.00
2023-03-29T04:12:43.482Z,97.30
2023-03-29T04:27:48.272Z,98.00
2023-03-29T04:43:14.429Z,98.50
2023-03-29T04:58:32.182Z,99.90
2023-03-29T05:13:38.757Z,99.90
2023-03-29T05:28:43.724Z,99.90
2023-03-29T05:43:49.388Z,99.90
2023-03-29T05:58:56.957Z,99.90
2023-03-29T06:14:02.274Z,99.90
2023-03-29T06:29:08.424Z,99.90
2023-03-29T06:44:14.016Z,99.90
2023-03-29T06:59:33.379Z,99.90
2023-03-29T07:15:00.709Z,99.90
2023-03-29T07:30:30.296Z,99.90
2023-03-29T07:45:48.623Z,99.90
2023-03-29T08:00:53.417Z,99.90
2023-03-29T08:16:20.721Z,99.90
2023-03-29T08:31:32.614Z,99.90
2023-03-29T08:46:44.548Z,99.90
2023-03-29T09:02:15.228Z,99.90
2023-03-29T09:17:30.643Z,99.90
2023-03-29T09:32:45.155Z,99.90
2023-03-29T09:47:53.522Z,99.90
2023-03-29T10:03:00.347Z,99.90
2023-03-29T10:18:17.824Z,99.90
2023-03-29T10:33:24.996Z,99.90
2023-03-29T10:48:31.941Z,99.90
2023-03-29T11:04:02.528Z,99.90
2023-03-29T11:19:27.155Z,99.90
2023-03-29T11:34:38.656Z,99.90
2023-03-29T11:49:49.214Z,98.60
2023-03-29T12:04:58.260Z,98.00
2023-03-29T12:20:07.982Z,97.60
2023-03-29T12:35:25.344Z,96.30
2023-03-29T12:50:52.470Z,95.90
2023-03-29T13:06:03.689Z,94.00
2023-03-29T13:21:18.774Z,93.60
2023-03-29T13:36:37.691Z,91.60
2023-03-29T13:51:44.983Z,91.40
2023-03-29T14:06:53.106Z,91.30
2023-03-29T14:21:59.989Z,88.30
2023-03-29T14:37:04.717Z,89.10
2023-03-29T14:52:13.241Z,90.40
2023-03-29T15:07:18.026Z,91.50
2023-03-29T15:22:22.548Z,91.80
2023-03-29T15:37:27.626Z,91.00
2023-03-29T15:52:32.670Z,89.40
2023-03-29T16:07:37.540Z,85.80
2023-03-29T16:22:42.649Z,88.00
2023-03-29T16:37:47.082Z,87.80
2023-03-29T16:52:52.794Z,88.40
2023-03-29T17:07:57.545Z,91.40
2023-03-29T17:23:02.027Z,92.80
2023-03-29T17:38:06.560Z,93.50
2023-03-29T17:53:11.319Z,94.10
2023-03-29T18:08:16.760Z,94.90
2023-03-29T18:23:21.350Z,95.80
2023-03-29T18:38:26.162Z,95.90
2023-03-29T18:53:30.719Z,96.30
2023-03-29T19:08:36.901Z,97.10
2023-03-29T19:23:41.666Z,97.50
2023-03-29T19:38:46.330Z,97.80
2023-03-29T19:53:50.891Z,97.80
2023-03-29T20:08:55.971Z,97.70
2023-03-29T20:24:00.885Z,97.40
2023-03-29T20:39:07.950Z,97.40
2023-03-29T20:54:12.531Z,97.20
2023-03-29T21:09:17.176Z,97.40
2023-03-29T21:24:22.473Z,98.00
2023-03-29T21:39:28.330Z,98.20
2023-03-29T21:54:32.849Z,97.40
2023-03-29T22:09:37.645Z,97.10
2023-03-29T22:24:42.497Z,97.80
2023-03-29T22:39:47.215Z,98.20
2023-03-29T22:54:51.675Z,99.90
2023-03-29T23:09:56.175Z,98.60
2023-03-29T23:25:00.624Z,98.10
2023-03-29T23:40:09.907Z,97.50
2023-03-29T23:55:15.622Z,98.10
